sensor_id;sensor_type;location;lat;lon;timestamp;P1;durP1;ratioP1;P2;durP2;ratioP2
36653;SDS011;22650;49.350;20.898;2022-12-29T00:00:06;6.93;;;3.03;;
36653;SDS011;22650;49.350;20.898;2022-12-29T00:02:46;7.07;;;2.75;;
36653;SDS011;22650;49.350;20.898;2022-12-29T00:05:19;9.07;;;3.08;;
36653;SDS011;22650;49.350;20.898;2022-12-29T00:07:53;6.28;;;2.30;;
36653;SDS011;22650;49.350;20.898;2022-12-29T00:10:26;7.95;;;2.63;;
36653;SDS011;22650;49.350;20.898;2022-12-29T00:13:00;6.28;;;2.85;;
36653;SDS011;22650;49.350;20.898;2022-12-29T00:15:55;7.13;;;2.80;;
36653;SDS011;22650;49.350;20.898;2022-12-29T00:18:28;4.60;;;2.47;;
36653;SDS011;22650;49.350;20.898;2022-12-29T00:21:02;5.55;;;2.97;;
36653;SDS011;22650;49.350;20.898;2022-12-29T00:23:52;8.00;;;2.78;;
36653;SDS011;22650;49.350;20.898;2022-12-29T00:26:43;7.13;;;2.67;;
36653;SDS011;22650;49.350;20.898;2022-12-29T00:29:35;12.75;;;3.28;;
36653;SDS011;22650;49.350;20.898;2022-12-29T00:32:27;3.97;;;2.20;;
36653;SDS011;22650;49.350;20.898;2022-12-29T00:35:21;5.25;;;2.42;;
36653;SDS011;22650;49.350;20.898;2022-12-29T00:37:59;3.90;;;2.15;;
36653;SDS011;22650;49.350;20.898;2022-12-29T00:40:53;4.60;;;2.20;;
36653;SDS011;22650;49.350;20.898;2022-12-29T00:43:44;7.22;;;2.20;;
36653;SDS011;22650;49.350;20.898;2022-12-29T00:46:35;12.00;;;2.83;;
36653;SDS011;22650;49.350;20.898;2022-12-29T00:49:12;7.80;;;2.47;;
36653;SDS011;22650;49.350;20.898;2022-12-29T00:52:05;5.72;;;2.10;;
36653;SDS011;22650;49.350;20.898;2022-12-29T00:54:40;5.40;;;2.08;;
36653;SDS011;22650;49.350;20.898;2022-12-29T00:57:16;7.68;;;2.55;;
36653;SDS011;22650;49.350;20.898;2022-12-29T00:59:50;6.07;;;1.80;;
36653;SDS011;22650;49.350;20.898;2022-12-29T01:02:23;4.13;;;1.70;;
36653;SDS011;22650;49.350;20.898;2022-12-29T01:04:58;4.72;;;1.65;;
36653;SDS011;22650;49.350;20.898;2022-12-29T01:07:32;4.13;;;1.92;;
36653;SDS011;22650;49.350;20.898;2022-12-29T01:10:06;4.97;;;1.88;;
36653;SDS011;22650;49.350;20.898;2022-12-29T01:12:42;7.25;;;2.88;;
36653;SDS011;22650;49.350;20.898;2022-12-29T01:15:17;3.03;;;2.13;;
36653;SDS011;22650;49.350;20.898;2022-12-29T01:17:52;6.50;;;2.00;;
36653;SDS011;22650;49.350;20.898;2022-12-29T01:20:27;3.33;;;1.95;;
36653;SDS011;22650;49.350;20.898;2022-12-29T01:23:01;3.00;;;1.73;;
36653;SDS011;22650;49.350;20.898;2022-12-29T01:25:34;3.22;;;1.48;;
36653;SDS011;22650;49.350;20.898;2022-12-29T01:28:08;3.63;;;1.63;;
36653;SDS011;22650;49.350;20.898;2022-12-29T01:30:42;3.72;;;1.20;;
36653;SDS011;22650;49.350;20.898;2022-12-29T01:33:17;3.78;;;2.05;;
36653;SDS011;22650;49.350;20.898;2022-12-29T01:35:52;5.25;;;1.58;;
36653;SDS011;22650;49.350;20.898;2022-12-29T01:38:25;5.85;;;1.75;;
36653;SDS011;22650;49.350;20.898;2022-12-29T01:40:59;2.70;;;1.38;;
36653;SDS011;22650;49.350;20.898;2022-12-29T01:43:40;3.90;;;2.13;;
36653;SDS011;22650;49.350;20.898;2022-12-29T01:46:18;4.28;;;1.95;;
36653;SDS011;22650;49.350;20.898;2022-12-29T01:48:58;3.70;;;1.58;;
36653;SDS011;22650;49.350;20.898;2022-12-29T01:51:38;6.10;;;1.73;;
36653;SDS011;22650;49.350;20.898;2022-12-29T01:54:17;4.25;;;1.85;;
36653;SDS011;22650;49.350;20.898;2022-12-29T01:56:55;3.67;;;1.58;;
36653;SDS011;22650;49.350;20.898;2022-12-29T01:59:31;4.68;;;1.52;;
36653;SDS011;22650;49.350;20.898;2022-12-29T02:02:10;3.58;;;1.60;;
36653;SDS011;22650;49.350;20.898;2022-12-29T02:04:45;4.07;;;1.33;;
36653;SDS011;22650;49.350;20.898;2022-12-29T02:07:23;4.28;;;1.63;;
36653;SDS011;22650;49.350;20.898;2022-12-29T02:09:59;3.45;;;1.50;;
36653;SDS011;22650;49.350;20.898;2022-12-29T02:12:34;6.55;;;2.30;;
36653;SDS011;22650;49.350;20.898;2022-12-29T02:15:08;3.13;;;1.67;;
36653;SDS011;22650;49.350;20.898;2022-12-29T02:17:50;4.10;;;2.08;;
36653;SDS011;22650;49.350;20.898;2022-12-29T02:23:49;3.92;;;1.85;;
36653;SDS011;22650;49.350;20.898;2022-12-29T02:26:44;4.03;;;1.77;;
36653;SDS011;22650;49.350;20.898;2022-12-29T02:29:42;3.03;;;1.55;;
36653;SDS011;22650;49.350;20.898;2022-12-29T02:32:41;4.03;;;1.80;;
36653;SDS011;22650;49.350;20.898;2022-12-29T02:35:23;2.88;;;1.70;;
36653;SDS011;22650;49.350;20.898;2022-12-29T02:38:08;4.63;;;1.40;;
36653;SDS011;22650;49.350;20.898;2022-12-29T02:40:48;5.45;;;1.80;;
36653;SDS011;22650;49.350;20.898;2022-12-29T02:43:28;6.30;;;1.75;;
36653;SDS011;22650;49.350;20.898;2022-12-29T02:46:10;7.78;;;2.20;;
36653;SDS011;22650;49.350;20.898;2022-12-29T02:48:52;3.25;;;1.58;;
36653;SDS011;22650;49.350;20.898;2022-12-29T02:51:34;4.65;;;1.98;;
36653;SDS011;22650;49.350;20.898;2022-12-29T02:54:11;4.85;;;1.92;;
36653;SDS011;22650;49.350;20.898;2022-12-29T02:57:03;5.55;;;1.50;;
36653;SDS011;22650;49.350;20.898;2022-12-29T02:59:38;3.22;;;1.92;;
36653;SDS011;22650;49.350;20.898;2022-12-29T03:02:23;3.90;;;1.77;;
36653;SDS011;22650;49.350;20.898;2022-12-29T03:05:18;10.43;;;2.28;;
36653;SDS011;22650;49.350;20.898;2022-12-29T03:08:02;3.58;;;1.70;;
36653;SDS011;22650;49.350;20.898;2022-12-29T03:10:41;4.32;;;2.13;;
36653;SDS011;22650;49.350;20.898;2022-12-29T03:13:23;7.03;;;2.28;;
36653;SDS011;22650;49.350;20.898;2022-12-29T03:16:20;7.40;;;2.95;;
36653;SDS011;22650;49.350;20.898;2022-12-29T03:18:58;9.05;;;3.65;;
36653;SDS011;22650;49.350;20.898;2022-12-29T03:21:39;5.20;;;2.15;;
36653;SDS011;22650;49.350;20.898;2022-12-29T03:24:41;6.55;;;3.20;;
36653;SDS011;22650;49.350;20.898;2022-12-29T03:27:19;11.35;;;3.17;;
36653;SDS011;22650;49.350;20.898;2022-12-29T03:29:57;5.85;;;2.58;;
36653;SDS011;22650;49.350;20.898;2022-12-29T03:32:36;4.68;;;2.17;;
36653;SDS011;22650;49.350;20.898;2022-12-29T03:35:13;4.20;;;2.17;;
36653;SDS011;22650;49.350;20.898;2022-12-29T03:37:52;5.22;;;2.95;;
36653;SDS011;22650;49.350;20.898;2022-12-29T03:40:32;10.65;;;5.18;;
36653;SDS011;22650;49.350;20.898;2022-12-29T03:43:07;8.25;;;3.63;;
36653;SDS011;22650;49.350;20.898;2022-12-29T03:45:41;7.45;;;4.32;;
36653;SDS011;22650;49.350;20.898;2022-12-29T03:48:15;9.15;;;3.72;;
36653;SDS011;22650;49.350;20.898;2022-12-29T03:50:50;7.60;;;4.05;;
36653;SDS011;22650;49.350;20.898;2022-12-29T03:53:25;8.10;;;4.47;;
36653;SDS011;22650;49.350;20.898;2022-12-29T03:55:58;11.75;;;4.18;;
36653;SDS011;22650;49.350;20.898;2022-12-29T03:58:33;9.35;;;4.43;;
36653;SDS011;22650;49.350;20.898;2022-12-29T04:01:15;8.50;;;4.32;;
36653;SDS011;22650;49.350;20.898;2022-12-29T04:03:49;11.38;;;4.68;;
36653;SDS011;22650;49.350;20.898;2022-12-29T04:06:24;17.50;;;4.78;;
36653;SDS011;22650;49.350;20.898;2022-12-29T04:09:05;8.50;;;3.97;;
36653;SDS011;22650;49.350;20.898;2022-12-29T04:11:44;10.43;;;4.35;;
36653;SDS011;22650;49.350;20.898;2022-12-29T04:14:18;5.93;;;2.97;;
36653;SDS011;22650;49.350;20.898;2022-12-29T04:16:51;5.90;;;3.08;;
36653;SDS011;22650;49.350;20.898;2022-12-29T04:19:25;5.43;;;3.10;;
36653;SDS011;22650;49.350;20.898;2022-12-29T04:21:59;11.55;;;3.90;;
36653;SDS011;22650;49.350;20.898;2022-12-29T04:24:35;6.53;;;2.47;;
36653;SDS011;22650;49.350;20.898;2022-12-29T04:27:09;4.55;;;2.08;;
36653;SDS011;22650;49.350;20.898;2022-12-29T04:29:56;3.70;;;2.00;;
36653;SDS011;22650;49.350;20.898;2022-12-29T04:32:49;5.95;;;2.40;;
36653;SDS011;22650;49.350;20.898;2022-12-29T04:35:23;6.15;;;2.25;;
36653;SDS011;22650;49.350;20.898;2022-12-29T04:37:57;4.43;;;2.45;;
36653;SDS011;22650;49.350;20.898;2022-12-29T04:40:32;5.95;;;2.40;;
36653;SDS011;22650;49.350;20.898;2022-12-29T04:43:06;4.18;;;2.25;;
36653;SDS011;22650;49.350;20.898;2022-12-29T04:45:58;4.50;;;2.17;;
36653;SDS011;22650;49.350;20.898;2022-12-29T04:48:39;3.90;;;2.03;;
36653;SDS011;22650;49.350;20.898;2022-12-29T04:51:36;7.75;;;2.22;;
36653;SDS011;22650;49.350;20.898;2022-12-29T04:54:12;3.67;;;1.75;;
36653;SDS011;22650;49.350;20.898;2022-12-29T04:56:50;4.80;;;1.98;;
36653;SDS011;22650;49.350;20.898;2022-12-29T04:59:23;6.18;;;2.42;;
36653;SDS011;22650;49.350;20.898;2022-12-29T05:02:00;4.07;;;2.05;;
36653;SDS011;22650;49.350;20.898;2022-12-29T05:04:35;5.80;;;2.60;;
36653;SDS011;22650;49.350;20.898;2022-12-29T05:07:08;5.55;;;2.03;;
36653;SDS011;22650;49.350;20.898;2022-12-29T05:09:42;5.30;;;2.35;;
36653;SDS011;22650;49.350;20.898;2022-12-29T05:12:17;6.22;;;2.63;;
36653;SDS011;22650;49.350;20.898;2022-12-29T05:14:58;4.97;;;2.45;;
36653;SDS011;22650;49.350;20.898;2022-12-29T05:17:34;4.80;;;1.60;;
36653;SDS011;22650;49.350;20.898;2022-12-29T05:20:10;4.50;;;2.22;;
36653;SDS011;22650;49.350;20.898;2022-12-29T05:22:44;5.75;;;1.90;;
36653;SDS011;22650;49.350;20.898;2022-12-29T05:25:18;5.47;;;2.47;;
36653;SDS011;22650;49.350;20.898;2022-12-29T05:28:00;6.60;;;2.33;;
36653;SDS011;22650;49.350;20.898;2022-12-29T05:30:56;6.68;;;2.80;;
36653;SDS011;22650;49.350;20.898;2022-12-29T05:33:30;2.78;;;1.77;;
36653;SDS011;22650;49.350;20.898;2022-12-29T05:36:04;5.15;;;2.78;;
36653;SDS011;22650;49.350;20.898;2022-12-29T05:38:39;6.25;;;2.53;;
36653;SDS011;22650;49.350;20.898;2022-12-29T05:41:14;5.18;;;2.63;;
36653;SDS011;22650;49.350;20.898;2022-12-29T05:43:55;4.65;;;2.25;;
36653;SDS011;22650;49.350;20.898;2022-12-29T05:46:32;5.28;;;2.28;;
36653;SDS011;22650;49.350;20.898;2022-12-29T05:49:14;4.47;;;2.22;;
36653;SDS011;22650;49.350;20.898;2022-12-29T05:52:12;7.97;;;2.38;;
36653;SDS011;22650;49.350;20.898;2022-12-29T05:54:45;5.70;;;2.75;;
36653;SDS011;22650;49.350;20.898;2022-12-29T05:57:22;4.80;;;2.35;;
36653;SDS011;22650;49.350;20.898;2022-12-29T06:00:08;7.07;;;2.33;;
36653;SDS011;22650;49.350;20.898;2022-12-29T06:02:45;5.68;;;2.97;;
36653;SDS011;22650;49.350;20.898;2022-12-29T06:05:20;3.65;;;2.13;;
36653;SDS011;22650;49.350;20.898;2022-12-29T06:07:54;3.72;;;2.20;;
36653;SDS011;22650;49.350;20.898;2022-12-29T06:10:29;9.23;;;3.10;;
36653;SDS011;22650;49.350;20.898;2022-12-29T06:13:07;4.65;;;2.10;;
36653;SDS011;22650;49.350;20.898;2022-12-29T06:15:47;7.38;;;2.42;;
36653;SDS011;22650;49.350;20.898;2022-12-29T06:18:22;5.65;;;2.45;;
36653;SDS011;22650;49.350;20.898;2022-12-29T06:20:58;6.20;;;2.38;;
36653;SDS011;22650;49.350;20.898;2022-12-29T06:23:33;5.82;;;2.70;;
36653;SDS011;22650;49.350;20.898;2022-12-29T06:26:07;6.70;;;2.80;;
36653;SDS011;22650;49.350;20.898;2022-12-29T06:28:42;6.30;;;2.53;;
36653;SDS011;22650;49.350;20.898;2022-12-29T06:31:17;4.20;;;2.35;;
36653;SDS011;22650;49.350;20.898;2022-12-29T06:33:52;3.90;;;2.00;;
36653;SDS011;22650;49.350;20.898;2022-12-29T06:36:25;4.20;;;1.88;;
36653;SDS011;22650;49.350;20.898;2022-12-29T06:38:59;5.50;;;2.10;;
36653;SDS011;22650;49.350;20.898;2022-12-29T06:41:32;6.38;;;2.58;;
36653;SDS011;22650;49.350;20.898;2022-12-29T06:44:34;10.65;;;3.33;;
36653;SDS011;22650;49.350;20.898;2022-12-29T06:47:12;4.72;;;2.50;;
36653;SDS011;22650;49.350;20.898;2022-12-29T06:49:46;4.03;;;2.25;;
36653;SDS011;22650;49.350;20.898;2022-12-29T06:52:19;7.18;;;2.25;;
36653;SDS011;22650;49.350;20.898;2022-12-29T06:54:55;4.47;;;1.98;;
36653;SDS011;22650;49.350;20.898;2022-12-29T06:57:28;10.07;;;3.13;;
36653;SDS011;22650;49.350;20.898;2022-12-29T07:00:02;7.93;;;2.97;;
36653;SDS011;22650;49.350;20.898;2022-12-29T07:02:37;4.20;;;2.30;;
36653;SDS011;22650;49.350;20.898;2022-12-29T07:05:11;6.10;;;3.58;;
36653;SDS011;22650;49.350;20.898;2022-12-29T07:07:45;9.63;;;4.65;;
36653;SDS011;22650;49.350;20.898;2022-12-29T07:10:19;19.98;;;8.77;;
36653;SDS011;22650;49.350;20.898;2022-12-29T07:12:52;20.23;;;7.90;;
36653;SDS011;22650;49.350;20.898;2022-12-29T07:15:26;12.18;;;6.05;;
36653;SDS011;22650;49.350;20.898;2022-12-29T07:18:01;13.38;;;5.32;;
36653;SDS011;22650;49.350;20.898;2022-12-29T07:20:35;9.95;;;4.20;;
36653;SDS011;22650;49.350;20.898;2022-12-29T07:23:08;18.90;;;6.65;;
36653;SDS011;22650;49.350;20.898;2022-12-29T07:25:42;6.57;;;3.28;;
36653;SDS011;22650;49.350;20.898;2022-12-29T07:28:15;5.55;;;3.15;;
36653;SDS011;22650;49.350;20.898;2022-12-29T07:30:49;5.53;;;2.17;;
36653;SDS011;22650;49.350;20.898;2022-12-29T07:33:24;7.15;;;3.30;;
36653;SDS011;22650;49.350;20.898;2022-12-29T07:35:59;7.57;;;2.88;;
36653;SDS011;22650;49.350;20.898;2022-12-29T07:38:33;6.50;;;3.40;;
36653;SDS011;22650;49.350;20.898;2022-12-29T07:41:06;9.27;;;3.13;;
36653;SDS011;22650;49.350;20.898;2022-12-29T07:43:40;5.75;;;2.75;;
36653;SDS011;22650;49.350;20.898;2022-12-29T07:46:35;6.75;;;2.92;;
36653;SDS011;22650;49.350;20.898;2022-12-29T07:49:28;6.88;;;3.05;;
36653;SDS011;22650;49.350;20.898;2022-12-29T07:52:02;6.07;;;2.63;;
36653;SDS011;22650;49.350;20.898;2022-12-29T07:54:36;9.45;;;3.30;;
36653;SDS011;22650;49.350;20.898;2022-12-29T07:57:09;6.90;;;3.17;;
36653;SDS011;22650;49.350;20.898;2022-12-29T07:59:43;6.43;;;3.33;;
36653;SDS011;22650;49.350;20.898;2022-12-29T08:02:16;7.47;;;2.85;;
36653;SDS011;22650;49.350;20.898;2022-12-29T08:04:51;7.53;;;2.95;;
36653;SDS011;22650;49.350;20.898;2022-12-29T08:07:25;7.90;;;3.13;;
36653;SDS011;22650;49.350;20.898;2022-12-29T08:09:58;7.15;;;3.05;;
36653;SDS011;22650;49.350;20.898;2022-12-29T08:12:33;12.27;;;3.47;;
36653;SDS011;22650;49.350;20.898;2022-12-29T08:15:06;6.75;;;3.03;;
36653;SDS011;22650;49.350;20.898;2022-12-29T08:17:41;11.05;;;5.03;;
36653;SDS011;22650;49.350;20.898;2022-12-29T08:20:16;11.30;;;4.85;;
36653;SDS011;22650;49.350;20.898;2022-12-29T08:22:50;11.52;;;3.97;;
36653;SDS011;22650;49.350;20.898;2022-12-29T08:25:24;15.73;;;7.90;;
36653;SDS011;22650;49.350;20.898;2022-12-29T08:27:57;23.17;;;8.07;;
36653;SDS011;22650;49.350;20.898;2022-12-29T08:30:31;17.70;;;7.25;;
36653;SDS011;22650;49.350;20.898;2022-12-29T08:33:05;17.17;;;8.07;;
36653;SDS011;22650;49.350;20.898;2022-12-29T08:35:40;27.38;;;8.73;;
36653;SDS011;22650;49.350;20.898;2022-12-29T08:38:13;22.55;;;11.10;;
36653;SDS011;22650;49.350;20.898;2022-12-29T08:40:47;15.90;;;7.80;;
36653;SDS011;22650;49.350;20.898;2022-12-29T08:43:21;15.05;;;8.15;;
36653;SDS011;22650;49.350;20.898;2022-12-29T08:45:54;21.55;;;8.88;;
36653;SDS011;22650;49.350;20.898;2022-12-29T08:48:29;18.83;;;8.65;;
36653;SDS011;22650;49.350;20.898;2022-12-29T08:51:05;20.27;;;8.65;;
36653;SDS011;22650;49.350;20.898;2022-12-29T08:53:39;21.85;;;10.23;;
36653;SDS011;22650;49.350;20.898;2022-12-29T08:56:12;18.38;;;8.60;;
36653;SDS011;22650;49.350;20.898;2022-12-29T08:58:52;15.48;;;8.57;;
36653;SDS011;22650;49.350;20.898;2022-12-29T09:01:27;23.83;;;10.95;;
36653;SDS011;22650;49.350;20.898;2022-12-29T09:04:02;26.65;;;10.93;;
36653;SDS011;22650;49.350;20.898;2022-12-29T09:06:53;19.15;;;8.65;;
36653;SDS011;22650;49.350;20.898;2022-12-29T09:09:26;24.95;;;9.90;;
36653;SDS011;22650;49.350;20.898;2022-12-29T09:12:00;40.22;;;14.98;;
36653;SDS011;22650;49.350;20.898;2022-12-29T09:14:33;20.70;;;7.70;;
36653;SDS011;22650;49.350;20.898;2022-12-29T09:17:10;16.80;;;7.13;;
36653;SDS011;22650;49.350;20.898;2022-12-29T09:20:01;30.60;;;12.50;;
36653;SDS011;22650;49.350;20.898;2022-12-29T09:22:37;19.95;;;6.85;;
36653;SDS011;22650;49.350;20.898;2022-12-29T09:25:11;18.55;;;7.97;;
36653;SDS011;22650;49.350;20.898;2022-12-29T09:27:44;16.17;;;6.30;;
36653;SDS011;22650;49.350;20.898;2022-12-29T09:30:20;10.52;;;4.80;;
36653;SDS011;22650;49.350;20.898;2022-12-29T09:32:54;16.77;;;6.85;;
36653;SDS011;22650;49.350;20.898;2022-12-29T09:35:28;14.40;;;5.55;;
36653;SDS011;22650;49.350;20.898;2022-12-29T09:38:03;11.13;;;5.22;;
36653;SDS011;22650;49.350;20.898;2022-12-29T09:40:37;16.90;;;7.47;;
36653;SDS011;22650;49.350;20.898;2022-12-29T09:43:16;16.30;;;7.65;;
36653;SDS011;22650;49.350;20.898;2022-12-29T09:46:02;17.63;;;6.90;;
36653;SDS011;22650;49.350;20.898;2022-12-29T09:48:47;11.27;;;5.68;;
36653;SDS011;22650;49.350;20.898;2022-12-29T09:51:25;11.40;;;5.68;;
36653;SDS011;22650;49.350;20.898;2022-12-29T09:54:02;8.98;;;4.70;;
36653;SDS011;22650;49.350;20.898;2022-12-29T09:56:53;12.93;;;5.43;;
36653;SDS011;22650;49.350;20.898;2022-12-29T09:59:32;10.68;;;3.92;;
36653;SDS011;22650;49.350;20.898;2022-12-29T10:02:14;7.40;;;3.70;;
36653;SDS011;22650;49.350;20.898;2022-12-29T10:05:02;5.10;;;3.15;;
36653;SDS011;22650;49.350;20.898;2022-12-29T10:07:36;17.40;;;6.78;;
36653;SDS011;22650;49.350;20.898;2022-12-29T10:10:23;12.23;;;5.32;;
36653;SDS011;22650;49.350;20.898;2022-12-29T10:13:13;9.63;;;4.35;;
36653;SDS011;22650;49.350;20.898;2022-12-29T10:16:01;10.30;;;4.20;;
36653;SDS011;22650;49.350;20.898;2022-12-29T10:18:48;4.70;;;3.78;;
36653;SDS011;22650;49.350;20.898;2022-12-29T10:21:47;32.25;;;11.32;;
36653;SDS011;22650;49.350;20.898;2022-12-29T10:24:31;15.85;;;4.88;;
36653;SDS011;22650;49.350;20.898;2022-12-29T10:27:11;34.80;;;10.07;;
36653;SDS011;22650;49.350;20.898;2022-12-29T10:29:50;23.30;;;6.10;;
36653;SDS011;22650;49.350;20.898;2022-12-29T10:32:29;12.95;;;5.60;;
36653;SDS011;22650;49.350;20.898;2022-12-29T10:35:09;32.30;;;12.27;;
36653;SDS011;22650;49.350;20.898;2022-12-29T10:37:47;23.02;;;5.97;;
36653;SDS011;22650;49.350;20.898;2022-12-29T10:40:26;7.43;;;4.15;;
36653;SDS011;22650;49.350;20.898;2022-12-29T10:43:12;14.02;;;4.43;;
36653;SDS011;22650;49.350;20.898;2022-12-29T10:45:56;11.35;;;4.07;;
36653;SDS011;22650;49.350;20.898;2022-12-29T10:48:32;8.93;;;4.20;;
36653;SDS011;22650;49.350;20.898;2022-12-29T10:51:07;9.13;;;3.85;;
36653;SDS011;22650;49.350;20.898;2022-12-29T10:53:42;7.88;;;3.58;;
36653;SDS011;22650;49.350;20.898;2022-12-29T10:56:21;10.20;;;4.70;;
36653;SDS011;22650;49.350;20.898;2022-12-29T10:59:06;9.32;;;4.70;;
36653;SDS011;22650;49.350;20.898;2022-12-29T11:01:50;15.20;;;5.30;;
36653;SDS011;22650;49.350;20.898;2022-12-29T11:04:35;6.82;;;4.68;;
36653;SDS011;22650;49.350;20.898;2022-12-29T11:07:17;6.75;;;3.17;;
36653;SDS011;22650;49.350;20.898;2022-12-29T11:12:59;7.35;;;4.38;;
36653;SDS011;22650;49.350;20.898;2022-12-29T11:15:39;10.30;;;3.80;;
36653;SDS011;22650;49.350;20.898;2022-12-29T11:18:18;7.05;;;3.55;;
36653;SDS011;22650;49.350;20.898;2022-12-29T11:20:55;8.52;;;4.60;;
36653;SDS011;22650;49.350;20.898;2022-12-29T11:23:31;9.38;;;4.13;;
36653;SDS011;22650;49.350;20.898;2022-12-29T11:26:17;9.38;;;4.55;;
36653;SDS011;22650;49.350;20.898;2022-12-29T11:32:04;15.15;;;5.13;;
36653;SDS011;22650;49.350;20.898;2022-12-29T11:34:44;9.40;;;4.72;;
36653;SDS011;22650;49.350;20.898;2022-12-29T11:37:18;10.68;;;4.35;;
36653;SDS011;22650;49.350;20.898;2022-12-29T11:40:01;7.43;;;3.50;;
36653;SDS011;22650;49.350;20.898;2022-12-29T11:42:40;13.30;;;4.97;;
36653;SDS011;22650;49.350;20.898;2022-12-29T11:45:20;9.68;;;4.90;;
36653;SDS011;22650;49.350;20.898;2022-12-29T11:47:57;9.32;;;3.80;;
36653;SDS011;22650;49.350;20.898;2022-12-29T11:50:34;11.98;;;6.22;;
36653;SDS011;22650;49.350;20.898;2022-12-29T11:53:14;8.50;;;3.97;;
36653;SDS011;22650;49.350;20.898;2022-12-29T11:55:53;7.78;;;4.03;;
36653;SDS011;22650;49.350;20.898;2022-12-29T11:58:30;7.38;;;3.47;;
36653;SDS011;22650;49.350;20.898;2022-12-29T12:01:05;6.70;;;3.97;;
36653;SDS011;22650;49.350;20.898;2022-12-29T12:03:45;9.00;;;4.60;;
36653;SDS011;22650;49.350;20.898;2022-12-29T12:06:25;9.07;;;4.37;;
36653;SDS011;22650;49.350;20.898;2022-12-29T12:09:02;17.52;;;4.05;;
36653;SDS011;22650;49.350;20.898;2022-12-29T12:11:43;7.60;;;4.20;;
36653;SDS011;22650;49.350;20.898;2022-12-29T12:14:17;10.20;;;4.13;;
36653;SDS011;22650;49.350;20.898;2022-12-29T12:17:21;7.22;;;4.05;;
36653;SDS011;22650;49.350;20.898;2022-12-29T12:20:14;8.55;;;3.75;;
36653;SDS011;22650;49.350;20.898;2022-12-29T12:22:57;8.30;;;4.40;;
36653;SDS011;22650;49.350;20.898;2022-12-29T12:25:42;11.38;;;3.63;;
36653;SDS011;22650;49.350;20.898;2022-12-29T12:28:21;10.00;;;4.45;;
36653;SDS011;22650;49.350;20.898;2022-12-29T12:31:12;14.63;;;6.57;;
36653;SDS011;22650;49.350;20.898;2022-12-29T12:33:53;8.43;;;4.60;;
36653;SDS011;22650;49.350;20.898;2022-12-29T12:36:46;8.85;;;4.43;;
36653;SDS011;22650;49.350;20.898;2022-12-29T12:39:33;7.38;;;4.10;;
36653;SDS011;22650;49.350;20.898;2022-12-29T12:42:19;5.95;;;3.53;;
36653;SDS011;22650;49.350;20.898;2022-12-29T12:45:10;7.93;;;4.10;;
36653;SDS011;22650;49.350;20.898;2022-12-29T12:48:04;11.60;;;4.47;;
36653;SDS011;22650;49.350;20.898;2022-12-29T12:50:49;6.65;;;3.60;;
36653;SDS011;22650;49.350;20.898;2022-12-29T12:53:43;9.02;;;4.57;;
36653;SDS011;22650;49.350;20.898;2022-12-29T12:56:39;8.30;;;4.57;;
36653;SDS011;22650;49.350;20.898;2022-12-29T12:59:31;7.68;;;3.70;;
36653;SDS011;22650;49.350;20.898;2022-12-29T13:02:17;7.75;;;3.95;;
36653;SDS011;22650;49.350;20.898;2022-12-29T13:08:39;9.98;;;4.45;;
36653;SDS011;22650;49.350;20.898;2022-12-29T13:11:35;8.07;;;3.58;;
36653;SDS011;22650;49.350;20.898;2022-12-29T13:14:21;10.27;;;4.22;;
36653;SDS011;22650;49.350;20.898;2022-12-29T13:17:07;11.15;;;4.35;;
36653;SDS011;22650;49.350;20.898;2022-12-29T13:19:47;10.55;;;5.15;;
36653;SDS011;22650;49.350;20.898;2022-12-29T13:22:29;10.57;;;4.65;;
36653;SDS011;22650;49.350;20.898;2022-12-29T13:25:15;10.00;;;4.72;;
36653;SDS011;22650;49.350;20.898;2022-12-29T13:27:58;11.30;;;3.72;;
36653;SDS011;22650;49.350;20.898;2022-12-29T13:30:39;9.07;;;4.10;;
36653;SDS011;22650;49.350;20.898;2022-12-29T13:33:19;7.72;;;4.20;;
36653;SDS011;22650;49.350;20.898;2022-12-29T13:35:59;13.18;;;3.95;;
36653;SDS011;22650;49.350;20.898;2022-12-29T13:38:37;13.07;;;4.43;;
36653;SDS011;22650;49.350;20.898;2022-12-29T13:41:18;8.27;;;4.32;;
36653;SDS011;22650;49.350;20.898;2022-12-29T13:43:57;9.30;;;4.47;;
36653;SDS011;22650;49.350;20.898;2022-12-29T13:46:33;15.68;;;4.75;;
36653;SDS011;22650;49.350;20.898;2022-12-29T13:49:12;9.95;;;4.15;;
36653;SDS011;22650;49.350;20.898;2022-12-29T13:51:48;10.60;;;5.30;;
36653;SDS011;22650;49.350;20.898;2022-12-29T13:54:27;10.00;;;5.38;;
36653;SDS011;22650;49.350;20.898;2022-12-29T13:59:48;7.55;;;4.18;;
36653;SDS011;22650;49.350;20.898;2022-12-29T14:02:30;9.70;;;4.57;;
36653;SDS011;22650;49.350;20.898;2022-12-29T14:05:27;7.75;;;4.35;;
36653;SDS011;22650;49.350;20.898;2022-12-29T14:08:03;11.75;;;4.60;;
36653;SDS011;22650;49.350;20.898;2022-12-29T14:10:38;10.32;;;4.28;;
36653;SDS011;22650;49.350;20.898;2022-12-29T14:13:21;15.47;;;5.33;;
36653;SDS011;22650;49.350;20.898;2022-12-29T14:15:56;12.35;;;5.20;;
36653;SDS011;22650;49.350;20.898;2022-12-29T14:18:31;18.95;;;4.43;;
36653;SDS011;22650;49.350;20.898;2022-12-29T14:21:08;8.45;;;4.85;;
36653;SDS011;22650;49.350;20.898;2022-12-29T14:23:50;8.48;;;4.32;;
36653;SDS011;22650;49.350;20.898;2022-12-29T14:26:34;7.85;;;3.95;;
36653;SDS011;22650;49.350;20.898;2022-12-29T14:32:35;10.75;;;4.82;;
36653;SDS011;22650;49.350;20.898;2022-12-29T14:38:14;26.43;;;11.97;;
36653;SDS011;22650;49.350;20.898;2022-12-29T14:40:50;29.23;;;11.52;;
36653;SDS011;22650;49.350;20.898;2022-12-29T14:43:25;28.17;;;10.73;;
36653;SDS011;22650;49.350;20.898;2022-12-29T14:46:01;25.77;;;10.20;;
36653;SDS011;22650;49.350;20.898;2022-12-29T14:48:39;22.25;;;9.52;;
36653;SDS011;22650;49.350;20.898;2022-12-29T14:51:17;32.95;;;10.85;;
36653;SDS011;22650;49.350;20.898;2022-12-29T14:53:52;19.15;;;9.05;;
36653;SDS011;22650;49.350;20.898;2022-12-29T14:56:26;19.98;;;9.55;;
36653;SDS011;22650;49.350;20.898;2022-12-29T14:59:03;19.85;;;7.70;;
36653;SDS011;22650;49.350;20.898;2022-12-29T15:01:45;24.92;;;10.10;;
36653;SDS011;22650;49.350;20.898;2022-12-29T15:04:23;23.30;;;10.77;;
36653;SDS011;22650;49.350;20.898;2022-12-29T15:06:59;24.13;;;12.43;;
36653;SDS011;22650;49.350;20.898;2022-12-29T15:09:35;24.48;;;11.63;;
36653;SDS011;22650;49.350;20.898;2022-12-29T15:12:12;25.52;;;11.93;;
36653;SDS011;22650;49.350;20.898;2022-12-29T15:14:53;26.88;;;10.75;;
36653;SDS011;22650;49.350;20.898;2022-12-29T15:17:30;34.08;;;11.80;;
36653;SDS011;22650;49.350;20.898;2022-12-29T15:20:14;27.92;;;13.02;;
36653;SDS011;22650;49.350;20.898;2022-12-29T15:22:54;23.10;;;11.90;;
36653;SDS011;22650;49.350;20.898;2022-12-29T15:25:30;32.70;;;14.52;;
36653;SDS011;22650;49.350;20.898;2022-12-29T15:28:04;23.63;;;11.90;;
36653;SDS011;22650;49.350;20.898;2022-12-29T15:30:49;25.52;;;12.23;;
36653;SDS011;22650;49.350;20.898;2022-12-29T15:33:26;34.72;;;14.57;;
36653;SDS011;22650;49.350;20.898;2022-12-29T15:36:02;33.50;;;15.05;;
36653;SDS011;22650;49.350;20.898;2022-12-29T15:38:38;44.92;;;20.58;;
36653;SDS011;22650;49.350;20.898;2022-12-29T15:41:16;76.22;;;29.17;;
36653;SDS011;22650;49.350;20.898;2022-12-29T15:44:02;30.63;;;14.57;;
36653;SDS011;22650;49.350;20.898;2022-12-29T15:46:43;31.30;;;14.52;;
36653;SDS011;22650;49.350;20.898;2022-12-29T15:49:18;70.18;;;27.20;;
36653;SDS011;22650;49.350;20.898;2022-12-29T15:52:05;40.53;;;15.13;;
36653;SDS011;22650;49.350;20.898;2022-12-29T15:54:40;32.97;;;12.70;;
36653;SDS011;22650;49.350;20.898;2022-12-29T15:57:19;22.63;;;9.45;;
36653;SDS011;22650;49.350;20.898;2022-12-29T15:59:56;21.77;;;10.50;;